עמוד ראשי
METAR-TAF:

METAR-TAF

שדות תעופה :

Haines, אלסקה, ארצות הברית

קו רוחב: 59-15N, קו אורך: 135-31W, גובה: 5מטר

תצפית מזג אוויר נוכחית

הדו"ח נערך לפני 56דקות, בשעה 18:54 UTC
רוח 8קשר מכיוון דרום-מזרח
טמפרטורת 16 צלסיוס
לחות 72%
לחץ 1017 hPa
ראות: 16.1קילומטר
שמיים נקיים

METAR: PAHN 171854Z AUTO 14008KT 10SM CLR 16/11 A3002 RMK AO2 SLP167 T01610106 TSNO

זמן: 11:50 (19:50 UTC)

תחזית

הדו"ח נערך לפני 2 שעות ו 28דקות, בשעה 17:22 UTC
תחזית בתוקף מ 17 ב 18 UTC עד 18 ב 18 UTC
רוח 8קשר מכיוון מזרח/דרום-מזרח
ראות: 10קילומטר
שמיים נקיים
מ 18 ב 0500UTC
רוח 5קשר מכיוון מזרח
ראות: 10קילומטר
שמיים נקיים

TAF: PAHN 171722Z 1718/1818 12008KT P6SM SKC FM180500 08005KT P6SM SKC AMD LTD TO CLD VIS AND WIND

תצפיות ותחזיות מזג אוויר לגבי יותר מ- 4,000 שדות תעופה ברחבי העולם. דוחות METAR ו- TAF.

התחנות הזמינות מסומנות בנקודות צהובות ואדומות על גבי המפה.

העבר את העכבר לנקודה הצבעונית על מנת לראות את שם התחנה.

לאחר מכן, לחץ כדי לראות את תוכן ואת תחזיות מזג האוויר.

כדי לשנות את המפה: לחץ על הכפתורים הירוקים עם הפלוס השחור כדי להתקרב; על הכפתור הירוק עם המקף כדי להתרחק; או בחיצים הירוקים למפות סמוכות.


METAR-TAF: